sensor_id;sensor_type;location;lat;lon;timestamp;pressure;altitude;pressure_sealevel;temperature;humidity
70127;BME280;57491;42.694;23.314;2023-12-20T00:00:36;95489.59;;;4.75;68.26
70127;BME280;57491;42.694;23.314;2023-12-20T00:03:04;95496.41;;;4.76;68.92
70127;BME280;57491;42.694;23.314;2023-12-20T00:05:31;95485.69;;;4.71;68.50
70127;BME280;57491;42.694;23.314;2023-12-20T00:07:59;95486.75;;;4.69;69.57
70127;BME280;57491;42.694;23.314;2023-12-20T00:10:26;95483.91;;;4.62;68.92
70127;BME280;57491;42.694;23.314;2023-12-20T00:12:53;95474.53;;;4.61;69.53
70127;BME280;57491;42.694;23.314;2023-12-20T00:15:21;95479.00;;;4.69;71.15
70127;BME280;57491;42.694;23.314;2023-12-20T00:17:49;95471.84;;;4.63;71.82
70127;BME280;57491;42.694;23.314;2023-12-20T00:20:16;95475.91;;;4.65;72.07
70127;BME280;57491;42.694;23.314;2023-12-20T00:22:43;95473.63;;;4.72;71.03
70127;BME280;57491;42.694;23.314;2023-12-20T00:25:10;95459.53;;;4.76;71.42
70127;BME280;57491;42.694;23.314;2023-12-20T00:27:38;95464.50;;;4.77;70.48
70127;BME280;57491;42.694;23.314;2023-12-20T00:30:06;95462.22;;;4.74;70.63
70127;BME280;57491;42.694;23.314;2023-12-20T00:32:34;95449.19;;;4.66;70.60
70127;BME280;57491;42.694;23.314;2023-12-20T00:35:04;95444.59;;;4.70;72.40
70127;BME280;57491;42.694;23.314;2023-12-20T00:37:33;95451.38;;;4.71;71.95
70127;BME280;57491;42.694;23.314;2023-12-20T00:40:01;95439.97;;;4.73;71.48
70127;BME280;57491;42.694;23.314;2023-12-20T00:42:28;95446.25;;;4.80;72.49
70127;BME280;57491;42.694;23.314;2023-12-20T00:44:56;95447.59;;;4.84;72.82
70127;BME280;57491;42.694;23.314;2023-12-20T00:47:23;95432.13;;;4.84;73.18
70127;BME280;57491;42.694;23.314;2023-12-20T00:49:50;95441.75;;;4.82;72.49
70127;BME280;57491;42.694;23.314;2023-12-20T00:52:19;95433.06;;;4.83;72.39
70127;BME280;57491;42.694;23.314;2023-12-20T00:54:48;95436.59;;;4.82;70.47
70127;BME280;57491;42.694;23.314;2023-12-20T00:57:15;95433.19;;;4.82;70.10
70127;BME280;57491;42.694;23.314;2023-12-20T00:59:43;95426.97;;;4.75;70.61
70127;BME280;57491;42.694;23.314;2023-12-20T01:02:10;95428.72;;;4.74;71.33
70127;BME280;57491;42.694;23.314;2023-12-20T01:04:37;95424.13;;;4.68;71.83
70127;BME280;57491;42.694;23.314;2023-12-20T01:07:05;95421.97;;;4.64;69.73
70127;BME280;57491;42.694;23.314;2023-12-20T01:09:33;95420.19;;;4.64;71.07
70127;BME280;57491;42.694;23.314;2023-12-20T01:12:01;95426.16;;;4.65;71.63
70127;BME280;57491;42.694;23.314;2023-12-20T01:14:28;95423.97;;;4.60;72.17
70127;BME280;57491;42.694;23.314;2023-12-20T01:16:55;95419.91;;;4.58;72.04
70127;BME280;57491;42.694;23.314;2023-12-20T01:19:23;95415.28;;;4.52;70.87
70127;BME280;57491;42.694;23.314;2023-12-20T01:21:52;95414.06;;;4.46;70.74
70127;BME280;57491;42.694;23.314;2023-12-20T01:24:20;95411.88;;;4.41;71.52
70127;BME280;57491;42.694;23.314;2023-12-20T01:26:48;95400.50;;;4.34;70.91
70127;BME280;57491;42.694;23.314;2023-12-20T01:29:16;95392.09;;;4.23;71.19
70127;BME280;57491;42.694;23.314;2023-12-20T01:31:43;95390.47;;;4.22;72.62
70127;BME280;57491;42.694;23.314;2023-12-20T01:34:10;95393.69;;;4.24;72.27
70127;BME280;57491;42.694;23.314;2023-12-20T01:36:38;95385.00;;;4.15;72.44
70127;BME280;57491;42.694;23.314;2023-12-20T01:39:05;95367.78;;;4.06;72.39
70127;BME280;57491;42.694;23.314;2023-12-20T01:41:33;95385.72;;;4.17;72.02
70127;BME280;57491;42.694;23.314;2023-12-20T01:44:02;95378.13;;;4.16;71.87
70127;BME280;57491;42.694;23.314;2023-12-20T01:46:30;95374.19;;;4.12;71.05
70127;BME280;57491;42.694;23.314;2023-12-20T01:48:57;95364.28;;;4.07;71.90
70127;BME280;57491;42.694;23.314;2023-12-20T01:51:25;95365.66;;;4.11;70.93
70127;BME280;57491;42.694;23.314;2023-12-20T01:53:54;95360.91;;;4.07;71.19
70127;BME280;57491;42.694;23.314;2023-12-20T01:56:22;95355.09;;;4.04;72.37
70127;BME280;57491;42.694;23.314;2023-12-20T01:58:49;95355.59;;;3.98;71.50
70127;BME280;57491;42.694;23.314;2023-12-20T02:01:18;95362.66;;;4.06;71.66
70127;BME280;57491;42.694;23.314;2023-12-20T02:03:46;95358.88;;;4.10;71.35
70127;BME280;57491;42.694;23.314;2023-12-20T02:06:14;95356.97;;;4.12;70.17
70127;BME280;57491;42.694;23.314;2023-12-20T02:08:41;95355.91;;;4.05;69.67
70127;BME280;57491;42.694;23.314;2023-12-20T02:11:10;95324.97;;;3.86;72.06
70127;BME280;57491;42.694;23.314;2023-12-20T02:13:37;95338.94;;;3.93;71.26
70127;BME280;57491;42.694;23.314;2023-12-20T02:16:04;95335.28;;;3.95;72.31
70127;BME280;57491;42.694;23.314;2023-12-20T02:18:34;95333.94;;;3.91;70.06
70127;BME280;57491;42.694;23.314;2023-12-20T02:21:04;95317.38;;;3.84;72.24
70127;BME280;57491;42.694;23.314;2023-12-20T02:23:32;95320.38;;;3.89;71.22
70127;BME280;57491;42.694;23.314;2023-12-20T02:26:00;95332.72;;;3.95;72.27
70127;BME280;57491;42.694;23.314;2023-12-20T02:28:28;95313.88;;;3.85;71.24
70127;BME280;57491;42.694;23.314;2023-12-20T02:30:56;95326.88;;;3.93;71.02
70127;BME280;57491;42.694;23.314;2023-12-20T02:33:23;95312.94;;;3.86;72.76
70127;BME280;57491;42.694;23.314;2023-12-20T02:35:50;95314.72;;;3.95;73.54
70127;BME280;57491;42.694;23.314;2023-12-20T02:38:18;95321.88;;;3.92;72.70
70127;BME280;57491;42.694;23.314;2023-12-20T02:40:48;95319.69;;;3.87;73.42
70127;BME280;57491;42.694;23.314;2023-12-20T02:43:16;95302.91;;;3.83;72.79
70127;BME280;57491;42.694;23.314;2023-12-20T02:45:43;95299.63;;;3.72;71.89
70127;BME280;57491;42.694;23.314;2023-12-20T02:48:10;95307.88;;;3.66;71.59
70127;BME280;57491;42.694;23.314;2023-12-20T02:50:38;95310.41;;;3.56;71.56
70127;BME280;57491;42.694;23.314;2023-12-20T02:53:05;95312.97;;;3.56;72.56
70127;BME280;57491;42.694;23.314;2023-12-20T02:55:32;95300.59;;;3.31;71.12
70127;BME280;57491;42.694;23.314;2023-12-20T02:58:01;95312.34;;;3.33;72.10
70127;BME280;57491;42.694;23.314;2023-12-20T03:00:28;95316.94;;;3.30;73.77
70127;BME280;57491;42.694;23.314;2023-12-20T03:02:55;95296.22;;;3.22;74.87
70127;BME280;57491;42.694;23.314;2023-12-20T03:05:23;95310.66;;;3.13;73.37
70127;BME280;57491;42.694;23.314;2023-12-20T03:07:50;95305.78;;;3.10;73.90
70127;BME280;57491;42.694;23.314;2023-12-20T03:10:18;95298.69;;;3.02;73.77
70127;BME280;57491;42.694;23.314;2023-12-20T03:12:45;95300.44;;;3.02;75.27
70127;BME280;57491;42.694;23.314;2023-12-20T03:15:14;95301.50;;;2.99;75.14
70127;BME280;57491;42.694;23.314;2023-12-20T03:17:42;95294.88;;;2.97;75.32
70127;BME280;57491;42.694;23.314;2023-12-20T03:20:09;95289.16;;;2.93;75.45
70127;BME280;57491;42.694;23.314;2023-12-20T03:22:36;95304.84;;;2.90;75.53
70127;BME280;57491;42.694;23.314;2023-12-20T03:25:04;95297.53;;;2.86;75.27
70127;BME280;57491;42.694;23.314;2023-12-20T03:27:31;95299.00;;;2.88;76.61
70127;BME280;57491;42.694;23.314;2023-12-20T03:29:59;95278.81;;;2.74;76.14
70127;BME280;57491;42.694;23.314;2023-12-20T03:32:28;95291.56;;;2.85;76.29
70127;BME280;57491;42.694;23.314;2023-12-20T03:34:56;95287.81;;;2.89;77.31
70127;BME280;57491;42.694;23.314;2023-12-20T03:37:23;95295.06;;;2.84;75.85
70127;BME280;57491;42.694;23.314;2023-12-20T03:39:52;95274.91;;;2.80;77.75
70127;BME280;57491;42.694;23.314;2023-12-20T03:42:19;95284.25;;;2.81;76.13
70127;BME280;57491;42.694;23.314;2023-12-20T03:44:46;95290.19;;;2.81;77.13
70127;BME280;57491;42.694;23.314;2023-12-20T03:47:14;95288.44;;;2.82;76.01
70127;BME280;57491;42.694;23.314;2023-12-20T03:49:42;95290.47;;;2.78;75.70
70127;BME280;57491;42.694;23.314;2023-12-20T03:52:10;95287.19;;;2.76;75.75
70127;BME280;57491;42.694;23.314;2023-12-20T03:54:37;95277.09;;;2.84;75.85
70127;BME280;57491;42.694;23.314;2023-12-20T03:57:05;95271.13;;;2.74;76.68
70127;BME280;57491;42.694;23.314;2023-12-20T03:59:34;95276.25;;;2.74;77.39
70127;BME280;57491;42.694;23.314;2023-12-20T04:02:03;95270.16;;;2.75;76.16
70127;BME280;57491;42.694;23.314;2023-12-20T04:04:30;95248.50;;;2.68;75.68
70127;BME280;57491;42.694;23.314;2023-12-20T04:06:59;95270.34;;;2.83;76.80
70127;BME280;57491;42.694;23.314;2023-12-20T04:09:26;95261.28;;;2.79;76.37
70127;BME280;57491;42.694;23.314;2023-12-20T04:11:54;95272.53;;;2.88;76.66
70127;BME280;57491;42.694;23.314;2023-12-20T04:14:21;95262.13;;;2.89;76.54
70127;BME280;57491;42.694;23.314;2023-12-20T04:16:48;95258.75;;;2.89;76.38
70127;BME280;57491;42.694;23.314;2023-12-20T04:19:16;95256.06;;;2.90;76.27
70127;BME280;57491;42.694;23.314;2023-12-20T04:21:43;95253.47;;;2.90;76.72
70127;BME280;57491;42.694;23.314;2023-12-20T04:24:11;95258.63;;;2.90;75.52
70127;BME280;57491;42.694;23.314;2023-12-20T04:26:39;95246.97;;;2.86;75.40
70127;BME280;57491;42.694;23.314;2023-12-20T04:29:06;95211.63;;;2.69;75.40
70127;BME280;57491;42.694;23.314;2023-12-20T04:31:33;95246.03;;;2.87;74.30
70127;BME280;57491;42.694;23.314;2023-12-20T04:34:01;95243.59;;;2.86;75.35
70127;BME280;57491;42.694;23.314;2023-12-20T04:36:28;95242.50;;;2.88;75.22
70127;BME280;57491;42.694;23.314;2023-12-20T04:38:55;95237.81;;;2.93;75.82
70127;BME280;57491;42.694;23.314;2023-12-20T04:41:27;95239.88;;;2.99;76.56
70127;BME280;57491;42.694;23.314;2023-12-20T04:43:54;95245.81;;;3.00;75.71
70127;BME280;57491;42.694;23.314;2023-12-20T04:46:21;95240.00;;;2.98;75.36
70127;BME280;57491;42.694;23.314;2023-12-20T04:48:49;95241.75;;;2.97;75.30
70127;BME280;57491;42.694;23.314;2023-12-20T04:51:16;95234.41;;;2.83;74.65
70127;BME280;57491;42.694;23.314;2023-12-20T04:53:43;95231.84;;;2.83;75.82
70127;BME280;57491;42.694;23.314;2023-12-20T04:56:10;95232.06;;;2.80;76.28
70127;BME280;57491;42.694;23.314;2023-12-20T04:58:39;95237.47;;;2.77;76.09
70127;BME280;57491;42.694;23.314;2023-12-20T05:01:06;95232.94;;;2.60;75.55
70127;BME280;57491;42.694;23.314;2023-12-20T05:03:34;95227.41;;;2.64;75.81
70127;BME280;57491;42.694;23.314;2023-12-20T05:06:01;95239.13;;;2.57;75.72
70127;BME280;57491;42.694;23.314;2023-12-20T05:08:29;95226.72;;;2.62;76.81
70127;BME280;57491;42.694;23.314;2023-12-20T05:10:56;95215.84;;;2.49;75.62
70127;BME280;57491;42.694;23.314;2023-12-20T05:13:24;95214.22;;;2.48;76.17
70127;BME280;57491;42.694;23.314;2023-12-20T05:15:52;95224.72;;;2.45;74.53
70127;BME280;57491;42.694;23.314;2023-12-20T05:18:20;95224.09;;;2.53;74.83
70127;BME280;57491;42.694;23.314;2023-12-20T05:20:49;95220.59;;;2.54;76.97
70127;BME280;57491;42.694;23.314;2023-12-20T05:23:16;95208.41;;;2.46;75.09
70127;BME280;57491;42.694;23.314;2023-12-20T05:25:44;95219.53;;;2.56;77.79
70127;BME280;57491;42.694;23.314;2023-12-20T05:28:11;95214.97;;;2.60;76.72
70127;BME280;57491;42.694;23.314;2023-12-20T05:30:38;95215.41;;;2.44;75.48
70127;BME280;57491;42.694;23.314;2023-12-20T05:33:07;95188.91;;;2.34;76.67
70127;BME280;57491;42.694;23.314;2023-12-20T05:35:35;95202.47;;;2.46;76.81
70127;BME280;57491;42.694;23.314;2023-12-20T05:38:04;95215.03;;;2.49;76.94
70127;BME280;57491;42.694;23.314;2023-12-20T05:40:31;95207.75;;;2.54;75.85
70127;BME280;57491;42.694;23.314;2023-12-20T05:42:59;95202.50;;;2.35;74.54
70127;BME280;57491;42.694;23.314;2023-12-20T05:45:26;95199.28;;;2.33;76.45
70127;BME280;57491;42.694;23.314;2023-12-20T05:47:53;95202.00;;;2.41;75.80
70127;BME280;57491;42.694;23.314;2023-12-20T05:50:22;95195.81;;;2.43;75.82
70127;BME280;57491;42.694;23.314;2023-12-20T05:52:51;95194.44;;;2.39;74.31
70127;BME280;57491;42.694;23.314;2023-12-20T05:55:18;95196.25;;;2.48;76.61
70127;BME280;57491;42.694;23.314;2023-12-20T05:57:45;95192.75;;;2.49;75.92
70127;BME280;57491;42.694;23.314;2023-12-20T06:00:13;95198.97;;;2.47;75.89
70127;BME280;57491;42.694;23.314;2023-12-20T06:02:41;95191.25;;;2.47;76.32
70127;BME280;57491;42.694;23.314;2023-12-20T06:05:08;95191.69;;;2.52;74.37
70127;BME280;57491;42.694;23.314;2023-12-20T06:07:37;95171.66;;;2.46;77.27
70127;BME280;57491;42.694;23.314;2023-12-20T06:10:05;95185.09;;;2.59;75.86
70127;BME280;57491;42.694;23.314;2023-12-20T06:12:33;95187.41;;;2.62;75.64
70127;BME280;57491;42.694;23.314;2023-12-20T06:15:02;95185.09;;;2.59;75.67
70127;BME280;57491;42.694;23.314;2023-12-20T06:17:29;95189.03;;;2.63;74.92
70127;BME280;57491;42.694;23.314;2023-12-20T06:19:57;95192.03;;;2.68;75.24
70127;BME280;57491;42.694;23.314;2023-12-20T06:22:24;95194.78;;;2.76;74.44
70127;BME280;57491;42.694;23.314;2023-12-20T06:24:53;95194.78;;;2.76;72.78
70127;BME280;57491;42.694;23.314;2023-12-20T06:27:20;95179.25;;;2.78;75.60
70127;BME280;57491;42.694;23.314;2023-12-20T06:29:47;95185.69;;;2.72;75.10
70127;BME280;57491;42.694;23.314;2023-12-20T06:32:16;95191.44;;;2.85;75.12
70127;BME280;57491;42.694;23.314;2023-12-20T06:34:43;95182.13;;;2.94;75.45
70127;BME280;57491;42.694;23.314;2023-12-20T06:37:11;95148.41;;;2.68;73.17
70127;BME280;57491;42.694;23.314;2023-12-20T06:39:40;95185.09;;;2.89;74.02
70127;BME280;57491;42.694;23.314;2023-12-20T06:42:09;95186.41;;;2.84;72.47
70127;BME280;57491;42.694;23.314;2023-12-20T06:44:36;95163.69;;;2.69;72.23
70127;BME280;57491;42.694;23.314;2023-12-20T06:47:04;95178.94;;;2.71;72.83
70127;BME280;57491;42.694;23.314;2023-12-20T06:49:31;95177.13;;;2.62;72.65
70127;BME280;57491;42.694;23.314;2023-12-20T06:51:59;95167.41;;;2.56;72.77
70127;BME280;57491;42.694;23.314;2023-12-20T06:54:26;95173.63;;;2.63;72.47
70127;BME280;57491;42.694;23.314;2023-12-20T06:56:53;95174.13;;;2.57;73.74
70127;BME280;57491;42.694;23.314;2023-12-20T06:59:22;95162.28;;;2.56;73.14
70127;BME280;57491;42.694;23.314;2023-12-20T07:01:49;95167.44;;;2.65;75.54
70127;BME280;57491;42.694;23.314;2023-12-20T07:04:17;95162.47;;;2.74;74.42
70127;BME280;57491;42.694;23.314;2023-12-20T07:06:46;95142.06;;;2.72;74.24
70127;BME280;57491;42.694;23.314;2023-12-20T07:09:14;95156.03;;;2.89;74.80
70127;BME280;57491;42.694;23.314;2023-12-20T07:11:41;95157.16;;;2.96;74.86
70127;BME280;57491;42.694;23.314;2023-12-20T07:14:08;95131.44;;;2.86;73.60
70127;BME280;57491;42.694;23.314;2023-12-20T07:16:37;95151.28;;;3.24;76.62
70127;BME280;57491;42.694;23.314;2023-12-20T07:19:04;95139.78;;;3.38;73.91
70127;BME280;57491;42.694;23.314;2023-12-20T07:21:32;95153.47;;;3.67;73.92
70127;BME280;57491;42.694;23.314;2023-12-20T07:23:59;95143.59;;;3.63;71.15
70127;BME280;57491;42.694;23.314;2023-12-20T07:26:25;95146.03;;;3.64;70.26
70127;BME280;57491;42.694;23.314;2023-12-20T07:28:52;95143.88;;;3.59;73.51
70127;BME280;57491;42.694;23.314;2023-12-20T07:31:19;95136.13;;;3.79;74.87
70127;BME280;57491;42.694;23.314;2023-12-20T07:33:48;95139.53;;;3.98;74.22
70127;BME280;57491;42.694;23.314;2023-12-20T07:36:15;95143.31;;;4.14;72.59
70127;BME280;57491;42.694;23.314;2023-12-20T07:38:44;95142.06;;;4.18;73.06
70127;BME280;57491;42.694;23.314;2023-12-20T07:41:11;95140.97;;;4.20;72.48
70127;BME280;57491;42.694;23.314;2023-12-20T07:43:38;95138.38;;;4.30;72.92
70127;BME280;57491;42.694;23.314;2023-12-20T07:46:06;95136.06;;;4.36;71.78
70127;BME280;57491;42.694;23.314;2023-12-20T07:48:34;95137.81;;;4.45;71.18
70127;BME280;57491;42.694;23.314;2023-12-20T07:51:04;95134.13;;;4.48;71.18
70127;BME280;57491;42.694;23.314;2023-12-20T07:53:33;95124.81;;;4.37;71.10
70127;BME280;57491;42.694;23.314;2023-12-20T07:56:01;95122.53;;;4.34;71.33
70127;BME280;57491;42.694;23.314;2023-12-20T07:58:28;95132.41;;;4.39;69.58
70127;BME280;57491;42.694;23.314;2023-12-20T08:00:57;95128.09;;;4.30;70.28
70127;BME280;57491;42.694;23.314;2023-12-20T08:03:24;95129.72;;;4.31;70.94
70127;BME280;57491;42.694;23.314;2023-12-20T08:05:51;95100.50;;;4.13;69.81
70127;BME280;57491;42.694;23.314;2023-12-20T08:08:20;95126.97;;;4.42;69.84
70127;BME280;57491;42.694;23.314;2023-12-20T08:10:47;95125.38;;;4.41;69.67
70127;BME280;57491;42.694;23.314;2023-12-20T08:13:14;95127.13;;;4.40;70.96
70127;BME280;57491;42.694;23.314;2023-12-20T08:15:42;95124.53;;;4.50;71.85
70127;BME280;57491;42.694;23.314;2023-12-20T08:18:09;95109.31;;;4.57;72.12
70127;BME280;57491;42.694;23.314;2023-12-20T08:20:36;95108.34;;;4.58;71.29
70127;BME280;57491;42.694;23.314;2023-12-20T08:23:04;95104.00;;;4.68;71.00
70127;BME280;57491;42.694;23.314;2023-12-20T08:25:32;95113.28;;;4.78;69.81
70127;BME280;57491;42.694;23.314;2023-12-20T08:28:00;95107.56;;;4.84;70.30
70127;BME280;57491;42.694;23.314;2023-12-20T08:30:28;95102.78;;;4.89;69.46
70127;BME280;57491;42.694;23.314;2023-12-20T08:32:57;95106.50;;;5.05;68.78
70127;BME280;57491;42.694;23.314;2023-12-20T08:35:26;95099.81;;;5.12;68.75
70127;BME280;57491;42.694;23.314;2023-12-20T08:37:53;95081.34;;;5.16;68.07
70127;BME280;57491;42.694;23.314;2023-12-20T08:40:21;95090.16;;;5.14;68.36
70127;BME280;57491;42.694;23.314;2023-12-20T08:42:50;95085.16;;;4.94;68.36
70127;BME280;57491;42.694;23.314;2023-12-20T08:45:18;95078.13;;;4.87;67.23
70127;BME280;57491;42.694;23.314;2023-12-20T08:47:45;95083.91;;;4.99;71.22
70127;BME280;57491;42.694;23.314;2023-12-20T08:50:12;95077.88;;;5.08;68.55
70127;BME280;57491;42.694;23.314;2023-12-20T08:52:41;95077.88;;;5.08;68.08
70127;BME280;57491;42.694;23.314;2023-12-20T08:55:08;95077.38;;;5.04;68.04
70127;BME280;57491;42.694;23.314;2023-12-20T08:57:36;95078.44;;;5.02;68.06
70127;BME280;57491;42.694;23.314;2023-12-20T09:00:09;95068.38;;;5.08;67.74
70127;BME280;57491;42.694;23.314;2023-12-20T09:02:37;95063.75;;;5.12;68.37
70127;BME280;57491;42.694;23.314;2023-12-20T09:05:05;95048.16;;;5.13;66.95
70127;BME280;57491;42.694;23.314;2023-12-20T09:07:32;95037.66;;;5.15;68.07
70127;BME280;57491;42.694;23.314;2023-12-20T09:10:00;95037.28;;;5.10;65.86
70127;BME280;57491;42.694;23.314;2023-12-20T09:12:27;95024.78;;;5.15;67.66
70127;BME280;57491;42.694;23.314;2023-12-20T09:14:54;95027.34;;;5.15;66.40
70127;BME280;57491;42.694;23.314;2023-12-20T09:17:23;95014.53;;;5.23;66.49
70127;BME280;57491;42.694;23.314;2023-12-20T09:19:50;95004.31;;;5.31;67.96
70127;BME280;57491;42.694;23.314;2023-12-20T09:22:20;94992.97;;;5.24;66.35
70127;BME280;57491;42.694;23.314;2023-12-20T09:24:47;94980.22;;;5.22;66.21
70127;BME280;57491;42.694;23.314;2023-12-20T09:27:14;94984.03;;;5.36;67.29
70127;BME280;57491;42.694;23.314;2023-12-20T09:29:41;94986.09;;;5.50;66.21
70127;BME280;57491;42.694;23.314;2023-12-20T09:32:08;94981.69;;;5.68;67.73
70127;BME280;57491;42.694;23.314;2023-12-20T09:34:37;94972.06;;;5.70;67.26
70127;BME280;57491;42.694;23.314;2023-12-20T09:37:04;94968.06;;;5.76;65.17
70127;BME280;57491;42.694;23.314;2023-12-20T09:39:33;94963.19;;;5.73;66.39
70127;BME280;57491;42.694;23.314;2023-12-20T09:42:02;94959.41;;;5.85;66.18
70127;BME280;57491;42.694;23.314;2023-12-20T09:44:30;94938.03;;;5.93;65.58
70127;BME280;57491;42.694;23.314;2023-12-20T09:47:02;94930.47;;;5.99;63.65
70127;BME280;57491;42.694;23.314;2023-12-20T09:49:30;94938.06;;;6.35;63.66
70127;BME280;57491;42.694;23.314;2023-12-20T09:52:00;94940.19;;;6.47;62.50
70127;BME280;57491;42.694;23.314;2023-12-20T09:54:28;94907.38;;;6.32;61.17
70127;BME280;57491;42.694;23.314;2023-12-20T09:56:56;94930.88;;;6.70;63.02
70127;BME280;57491;42.694;23.314;2023-12-20T09:59:23;94932.19;;;6.75;61.22
70127;BME280;57491;42.694;23.314;2023-12-20T10:01:52;94926.25;;;7.14;61.65
70127;BME280;57491;42.694;23.314;2023-12-20T10:04:22;94920.94;;;8.50;57.89
70127;BME280;57491;42.694;23.314;2023-12-20T10:06:51;94925.00;;;9.44;53.75
70127;BME280;57491;42.694;23.314;2023-12-20T10:09:20;94911.34;;;11.31;49.55
70127;BME280;57491;42.694;23.314;2023-12-20T10:11:47;94888.47;;;12.44;44.93
70127;BME280;57491;42.694;23.314;2023-12-20T10:14:16;94898.34;;;13.75;41.86
70127;BME280;57491;42.694;23.314;2023-12-20T10:16:44;94889.38;;;14.42;39.60
70127;BME280;57491;42.694;23.314;2023-12-20T10:19:11;94894.28;;;13.93;40.06
70127;BME280;57491;42.694;23.314;2023-12-20T10:21:39;94886.00;;;14.22;40.18
70127;BME280;57491;42.694;23.314;2023-12-20T10:24:08;94877.03;;;15.81;37.33
70127;BME280;57491;42.694;23.314;2023-12-20T10:26:37;94856.69;;;17.46;33.37
70127;BME280;57491;42.694;23.314;2023-12-20T10:29:05;94862.69;;;17.99;32.30
70127;BME280;57491;42.694;23.314;2023-12-20T10:31:33;94855.16;;;19.39;30.20
70127;BME280;57491;42.694;23.314;2023-12-20T10:34:02;94858.41;;;19.75;29.49
70127;BME280;57491;42.694;23.314;2023-12-20T10:36:31;94859.13;;;20.42;28.07
70127;BME280;57491;42.694;23.314;2023-12-20T10:38:59;94851.13;;;20.80;26.95
70127;BME280;57491;42.694;23.314;2023-12-20T10:41:29;94842.22;;;21.40;26.27
70127;BME280;57491;42.694;23.314;2023-12-20T10:43:59;94842.22;;;21.40;26.64
70127;BME280;57491;42.694;23.314;2023-12-20T10:46:27;94831.72;;;22.19;24.73
70127;BME280;57491;42.694;23.314;2023-12-20T10:48:56;94829.63;;;22.26;25.14
70127;BME280;57491;42.694;23.314;2023-12-20T10:51:24;94821.41;;;22.22;24.92
70127;BME280;57491;42.694;23.314;2023-12-20T10:53:54;94821.78;;;22.41;24.85
70127;BME280;57491;42.694;23.314;2023-12-20T10:56:22;94822.66;;;22.67;24.82
70127;BME280;57491;42.694;23.314;2023-12-20T10:58:50;94822.00;;;23.07;23.46
70127;BME280;57491;42.694;23.314;2023-12-20T11:01:19;94783.56;;;23.20;23.66
70127;BME280;57491;42.694;23.314;2023-12-20T11:03:49;94813.03;;;23.18;23.16
70127;BME280;57491;42.694;23.314;2023-12-20T11:06:32;94785.66;;;24.09;22.78
70127;BME280;57491;42.694;23.314;2023-12-20T11:09:10;94792.84;;;23.88;22.61
70127;BME280;57491;42.694;23.314;2023-12-20T11:11:56;94789.25;;;22.66;23.93
70127;BME280;57491;42.694;23.314;2023-12-20T11:14:29;94792.84;;;20.22;26.46
70127;BME280;57491;42.694;23.314;2023-12-20T11:17:12;94779.41;;;17.93;29.54
70127;BME280;57491;42.694;23.314;2023-12-20T11:20:04;94775.03;;;16.16;32.76
70127;BME280;57491;42.694;23.314;2023-12-20T11:22:32;94765.34;;;14.88;34.79
70127;BME280;57491;42.694;23.314;2023-12-20T11:25:03;94755.63;;;13.81;37.64
70127;BME280;57491;42.694;23.314;2023-12-20T11:27:34;94764.97;;;12.78;39.69
70127;BME280;57491;42.694;23.314;2023-12-20T11:30:03;94753.03;;;12.30;42.40
70127;BME280;57491;42.694;23.314;2023-12-20T11:32:34;94762.06;;;11.73;43.49
70127;BME280;57491;42.694;23.314;2023-12-20T11:35:17;94753.69;;;11.15;45.38
70127;BME280;57491;42.694;23.314;2023-12-20T11:37:45;94740.16;;;10.71;47.91
70127;BME280;57491;42.694;23.314;2023-12-20T11:40:15;94740.03;;;10.37;48.24
70127;BME280;57491;42.694;23.314;2023-12-20T11:42:43;94722.91;;;10.06;49.44
70127;BME280;57491;42.694;23.314;2023-12-20T11:45:13;94714.63;;;9.96;51.26
70127;BME280;57491;42.694;23.314;2023-12-20T11:47:46;94729.72;;;9.86;51.91
70127;BME280;57491;42.694;23.314;2023-12-20T11:50:15;94725.50;;;10.06;49.91
70127;BME280;57491;42.694;23.314;2023-12-20T11:52:42;94715.53;;;10.24;49.82
70127;BME280;57491;42.694;23.314;2023-12-20T11:55:10;94703.09;;;10.90;49.02
70127;BME280;57491;42.694;23.314;2023-12-20T11:57:37;94696.34;;;12.58;45.65
70127;BME280;57491;42.694;23.314;2023-12-20T12:00:05;94696.00;;;14.97;39.54
70127;BME280;57491;42.694;23.314;2023-12-20T12:02:34;94672.56;;;16.59;35.95
70127;BME280;57491;42.694;23.314;2023-12-20T12:05:03;94672.50;;;17.24;34.21
70127;BME280;57491;42.694;23.314;2023-12-20T12:07:31;94659.34;;;18.72;31.91
70127;BME280;57491;42.694;23.314;2023-12-20T12:09:58;94663.00;;;20.25;29.16
70127;BME280;57491;42.694;23.314;2023-12-20T12:12:26;94659.25;;;21.06;28.38
70127;BME280;57491;42.694;23.314;2023-12-20T12:14:54;94658.56;;;22.30;26.08
70127;BME280;57491;42.694;23.314;2023-12-20T12:17:22;94670.00;;;22.61;25.48
70127;BME280;57491;42.694;23.314;2023-12-20T12:19:49;94649.38;;;22.98;25.32
70127;BME280;57491;42.694;23.314;2023-12-20T12:22:18;94643.25;;;22.67;25.29
70127;BME280;57491;42.694;23.314;2023-12-20T12:24:46;94639.50;;;22.28;25.52
70127;BME280;57491;42.694;23.314;2023-12-20T12:27:15;94630.50;;;21.62;26.62
70127;BME280;57491;42.694;23.314;2023-12-20T12:30:00;94648.16;;;21.46;26.73
70127;BME280;57491;42.694;23.314;2023-12-20T12:32:29;94639.66;;;20.38;28.03
70127;BME280;57491;42.694;23.314;2023-12-20T12:34:56;94639.09;;;20.36;28.14
70127;BME280;57491;42.694;23.314;2023-12-20T12:37:25;94645.03;;;20.00;29.28
70127;BME280;57491;42.694;23.314;2023-12-20T12:39:53;94641.94;;;19.04;30.17
70127;BME280;57491;42.694;23.314;2023-12-20T12:42:21;94644.44;;;19.33;30.25
70127;BME280;57491;42.694;23.314;2023-12-20T12:44:52;94624.13;;;20.20;28.61
70127;BME280;57491;42.694;23.314;2023-12-20T12:47:20;94634.72;;;20.47;28.62
70127;BME280;57491;42.694;23.314;2023-12-20T12:49:49;94634.72;;;20.47;28.34
70127;BME280;57491;42.694;23.314;2023-12-20T12:52:18;94622.75;;;20.13;28.50
70127;BME280;57491;42.694;23.314;2023-12-20T12:54:47;94629.34;;;19.88;28.83
70127;BME280;57491;42.694;23.314;2023-12-20T12:57:15;94620.22;;;19.52;29.55
70127;BME280;57491;42.694;23.314;2023-12-20T12:59:43;94623.38;;;18.33;30.78
70127;BME280;57491;42.694;23.314;2023-12-20T13:02:12;94623.97;;;16.91;33.40